sensor_id;sensor_type;location;lat;lon;timestamp;temperature;humidity
21255;DHT22;10785;50.674;17.954;2023-04-26T00:00:16;5.60;1.00
21255;DHT22;10785;50.674;17.954;2023-04-26T00:02:46;5.60;1.00
21255;DHT22;10785;50.674;17.954;2023-04-26T00:05:16;5.50;1.00
21255;DHT22;10785;50.674;17.954;2023-04-26T00:07:45;5.50;1.00
21255;DHT22;10785;50.674;17.954;2023-04-26T00:10:16;5.40;1.00
21255;DHT22;10785;50.674;17.954;2023-04-26T00:12:46;5.40;1.00
21255;DHT22;10785;50.674;17.954;2023-04-26T00:15:14;5.40;1.00
21255;DHT22;10785;50.674;17.954;2023-04-26T00:17:43;5.30;1.00
21255;DHT22;10785;50.674;17.954;2023-04-26T00:22:42;5.30;1.00
21255;DHT22;10785;50.674;17.954;2023-04-26T00:25:11;5.20;1.00
21255;DHT22;10785;50.674;17.954;2023-04-26T00:27:40;5.20;1.00
21255;DHT22;10785;50.674;17.954;2023-04-26T00:30:09;5.20;1.00
21255;DHT22;10785;50.674;17.954;2023-04-26T00:32:38;5.10;1.00
21255;DHT22;10785;50.674;17.954;2023-04-26T00:35:07;5.10;1.00
21255;DHT22;10785;50.674;17.954;2023-04-26T00:37:38;5.10;1.00
21255;DHT22;10785;50.674;17.954;2023-04-26T00:40:08;5.10;1.00
21255;DHT22;10785;50.674;17.954;2023-04-26T00:42:38;5.10;1.00
21255;DHT22;10785;50.674;17.954;2023-04-26T00:45:07;5.00;1.00
21255;DHT22;10785;50.674;17.954;2023-04-26T00:47:36;5.00;1.00
21255;DHT22;10785;50.674;17.954;2023-04-26T00:50:06;5.00;1.00
21255;DHT22;10785;50.674;17.954;2023-04-26T00:52:38;4.90;1.00
21255;DHT22;10785;50.674;17.954;2023-04-26T00:55:08;4.90;1.00
21255;DHT22;10785;50.674;17.954;2023-04-26T00:57:38;4.90;1.00
21255;DHT22;10785;50.674;17.954;2023-04-26T01:00:08;4.80;1.00
21255;DHT22;10785;50.674;17.954;2023-04-26T01:02:38;4.80;1.00
21255;DHT22;10785;50.674;17.954;2023-04-26T01:05:08;4.80;1.00
21255;DHT22;10785;50.674;17.954;2023-04-26T01:07:39;4.80;1.00
21255;DHT22;10785;50.674;17.954;2023-04-26T01:10:08;4.70;1.00
21255;DHT22;10785;50.674;17.954;2023-04-26T01:12:37;4.70;1.00
21255;DHT22;10785;50.674;17.954;2023-04-26T01:15:09;4.70;1.00
21255;DHT22;10785;50.674;17.954;2023-04-26T01:17:38;4.70;1.00
21255;DHT22;10785;50.674;17.954;2023-04-26T01:20:07;4.70;1.00
21255;DHT22;10785;50.674;17.954;2023-04-26T01:22:39;4.70;1.00
21255;DHT22;10785;50.674;17.954;2023-04-26T01:25:11;4.70;1.00
21255;DHT22;10785;50.674;17.954;2023-04-26T01:27:39;4.60;1.00
21255;DHT22;10785;50.674;17.954;2023-04-26T01:30:09;4.60;1.00
21255;DHT22;10785;50.674;17.954;2023-04-26T01:32:38;4.60;1.00
21255;DHT22;10785;50.674;17.954;2023-04-26T01:35:07;4.60;1.00
21255;DHT22;10785;50.674;17.954;2023-04-26T01:37:36;4.60;1.00
21255;DHT22;10785;50.674;17.954;2023-04-26T01:40:07;4.50;1.00
21255;DHT22;10785;50.674;17.954;2023-04-26T01:42:37;4.50;1.00
21255;DHT22;10785;50.674;17.954;2023-04-26T01:45:06;4.50;1.00
21255;DHT22;10785;50.674;17.954;2023-04-26T01:47:54;4.50;1.00
21255;DHT22;10785;50.674;17.954;2023-04-26T01:50:23;4.40;1.00
21255;DHT22;10785;50.674;17.954;2023-04-26T01:52:52;4.40;1.00
21255;DHT22;10785;50.674;17.954;2023-04-26T01:55:22;4.30;1.00
21255;DHT22;10785;50.674;17.954;2023-04-26T01:57:50;4.30;1.00
21255;DHT22;10785;50.674;17.954;2023-04-26T02:00:19;4.30;1.00
21255;DHT22;10785;50.674;17.954;2023-04-26T02:02:48;4.20;1.00
21255;DHT22;10785;50.674;17.954;2023-04-26T02:05:18;4.20;1.00
21255;DHT22;10785;50.674;17.954;2023-04-26T02:07:46;4.20;1.00
21255;DHT22;10785;50.674;17.954;2023-04-26T02:10:15;4.20;1.00
21255;DHT22;10785;50.674;17.954;2023-04-26T02:12:46;4.20;1.00
21255;DHT22;10785;50.674;17.954;2023-04-26T02:15:15;4.20;1.00
21255;DHT22;10785;50.674;17.954;2023-04-26T02:17:43;4.20;1.00
21255;DHT22;10785;50.674;17.954;2023-04-26T02:20:13;4.10;1.00
21255;DHT22;10785;50.674;17.954;2023-04-26T02:22:42;4.10;1.00
21255;DHT22;10785;50.674;17.954;2023-04-26T02:25:14;4.10;1.00
21255;DHT22;10785;50.674;17.954;2023-04-26T02:27:43;4.10;1.00
21255;DHT22;10785;50.674;17.954;2023-04-26T02:30:13;4.20;1.00
21255;DHT22;10785;50.674;17.954;2023-04-26T02:32:43;4.10;1.00
21255;DHT22;10785;50.674;17.954;2023-04-26T02:35:11;4.20;1.00
21255;DHT22;10785;50.674;17.954;2023-04-26T02:37:41;4.10;1.00
21255;DHT22;10785;50.674;17.954;2023-04-26T02:40:10;4.10;1.00
21255;DHT22;10785;50.674;17.954;2023-04-26T02:42:40;4.10;1.00
21255;DHT22;10785;50.674;17.954;2023-04-26T02:45:09;4.10;1.00
21255;DHT22;10785;50.674;17.954;2023-04-26T02:47:39;4.10;1.00
21255;DHT22;10785;50.674;17.954;2023-04-26T02:50:09;4.10;1.00
21255;DHT22;10785;50.674;17.954;2023-04-26T02:52:38;4.00;1.00
21255;DHT22;10785;50.674;17.954;2023-04-26T02:55:07;4.00;1.00
21255;DHT22;10785;50.674;17.954;2023-04-26T02:57:36;4.00;1.00
21255;DHT22;10785;50.674;17.954;2023-04-26T03:00:07;4.00;1.00
21255;DHT22;10785;50.674;17.954;2023-04-26T03:02:39;4.00;1.00
21255;DHT22;10785;50.674;17.954;2023-04-26T03:05:08;4.00;1.00
21255;DHT22;10785;50.674;17.954;2023-04-26T03:07:37;4.00;1.00
21255;DHT22;10785;50.674;17.954;2023-04-26T03:10:07;4.00;1.00
21255;DHT22;10785;50.674;17.954;2023-04-26T03:12:37;4.00;1.00
21255;DHT22;10785;50.674;17.954;2023-04-26T03:15:06;4.00;1.00
21255;DHT22;10785;50.674;17.954;2023-04-26T03:17:39;4.00;1.00
21255;DHT22;10785;50.674;17.954;2023-04-26T03:20:08;4.00;1.00
21255;DHT22;10785;50.674;17.954;2023-04-26T03:22:38;4.10;1.00
21255;DHT22;10785;50.674;17.954;2023-04-26T03:25:08;4.10;1.00
21255;DHT22;10785;50.674;17.954;2023-04-26T03:27:37;4.10;1.00
21255;DHT22;10785;50.674;17.954;2023-04-26T03:30:07;4.00;1.00
21255;DHT22;10785;50.674;17.954;2023-04-26T03:32:38;4.10;1.00
21255;DHT22;10785;50.674;17.954;2023-04-26T03:35:08;4.10;1.00
21255;DHT22;10785;50.674;17.954;2023-04-26T03:37:38;4.10;1.00
21255;DHT22;10785;50.674;17.954;2023-04-26T03:40:11;4.00;1.00
21255;DHT22;10785;50.674;17.954;2023-04-26T03:42:40;4.00;1.00
21255;DHT22;10785;50.674;17.954;2023-04-26T03:45:09;4.00;1.00
21255;DHT22;10785;50.674;17.954;2023-04-26T04:03:44;4.70;1.00
21255;DHT22;10785;50.674;17.954;2023-04-26T04:06:15;4.90;1.00
21255;DHT22;10785;50.674;17.954;2023-04-26T04:08:44;5.10;1.00
21255;DHT22;10785;50.674;17.954;2023-04-26T04:11:12;5.30;17.80
21255;DHT22;10785;50.674;17.954;2023-04-26T04:13:43;5.50;99.90
21255;DHT22;10785;50.674;17.954;2023-04-26T04:16:12;5.80;99.90
21255;DHT22;10785;50.674;17.954;2023-04-26T04:18:58;5.90;99.90
21255;DHT22;10785;50.674;17.954;2023-04-26T04:21:26;6.20;99.40
21255;DHT22;10785;50.674;17.954;2023-04-26T04:23:57;6.60;97.20
21255;DHT22;10785;50.674;17.954;2023-04-26T04:26:26;6.80;94.70
21255;DHT22;10785;50.674;17.954;2023-04-26T04:28:55;7.00;93.00
21255;DHT22;10785;50.674;17.954;2023-04-26T04:31:24;7.10;91.10
21255;DHT22;10785;50.674;17.954;2023-04-26T04:33:53;7.20;89.90
21255;DHT22;10785;50.674;17.954;2023-04-26T04:36:23;7.50;83.90
21255;DHT22;10785;50.674;17.954;2023-04-26T04:38:53;7.70;76.30
21255;DHT22;10785;50.674;17.954;2023-04-26T04:41:22;7.80;72.50
21255;DHT22;10785;50.674;17.954;2023-04-26T04:43:51;7.90;71.30
21255;DHT22;10785;50.674;17.954;2023-04-26T04:46:21;7.60;74.20
21255;DHT22;10785;50.674;17.954;2023-04-26T04:48:51;7.70;73.20
21255;DHT22;10785;50.674;17.954;2023-04-26T04:51:21;7.80;70.90
21255;DHT22;10785;50.674;17.954;2023-04-26T04:53:51;7.80;70.30
21255;DHT22;10785;50.674;17.954;2023-04-26T04:56:20;7.90;68.10
21255;DHT22;10785;50.674;17.954;2023-04-26T04:58:49;8.00;66.20
21255;DHT22;10785;50.674;17.954;2023-04-26T05:01:20;8.20;65.00
21255;DHT22;10785;50.674;17.954;2023-04-26T05:03:52;7.90;67.20
21255;DHT22;10785;50.674;17.954;2023-04-26T05:06:23;7.90;67.50
21255;DHT22;10785;50.674;17.954;2023-04-26T05:08:53;8.10;66.00
21255;DHT22;10785;50.674;17.954;2023-04-26T05:11:23;8.30;63.00
21255;DHT22;10785;50.674;17.954;2023-04-26T05:13:52;8.30;61.80
21255;DHT22;10785;50.674;17.954;2023-04-26T05:16:21;8.10;62.50
21255;DHT22;10785;50.674;17.954;2023-04-26T05:18:49;8.10;64.90
21255;DHT22;10785;50.674;17.954;2023-04-26T05:21:18;8.50;57.50
21255;DHT22;10785;50.674;17.954;2023-04-26T05:23:47;8.50;57.90
21255;DHT22;10785;50.674;17.954;2023-04-26T05:26:18;8.50;58.00
21255;DHT22;10785;50.674;17.954;2023-04-26T05:29:12;8.40;56.80
21255;DHT22;10785;50.674;17.954;2023-04-26T05:31:58;8.10;58.20
21255;DHT22;10785;50.674;17.954;2023-04-26T05:34:40;7.90;65.70
21255;DHT22;10785;50.674;17.954;2023-04-26T05:37:13;7.90;63.80
21255;DHT22;10785;50.674;17.954;2023-04-26T05:39:43;7.90;67.30
21255;DHT22;10785;50.674;17.954;2023-04-26T05:42:13;8.40;64.70
21255;DHT22;10785;50.674;17.954;2023-04-26T05:44:44;8.60;57.80
21255;DHT22;10785;50.674;17.954;2023-04-26T05:47:13;8.70;55.10
21255;DHT22;10785;50.674;17.954;2023-04-26T05:49:41;8.10;57.70
21255;DHT22;10785;50.674;17.954;2023-04-26T05:52:10;8.50;60.90
21255;DHT22;10785;50.674;17.954;2023-04-26T05:54:39;8.90;55.20
21255;DHT22;10785;50.674;17.954;2023-04-26T05:59:39;9.90;40.60
21255;DHT22;10785;50.674;17.954;2023-04-26T06:02:08;9.70;35.90
21255;DHT22;10785;50.674;17.954;2023-04-26T06:04:48;9.20;38.10
21255;DHT22;10785;50.674;17.954;2023-04-26T06:07:18;8.90;41.90
21255;DHT22;10785;50.674;17.954;2023-04-26T06:09:47;8.90;41.90
21255;DHT22;10785;50.674;17.954;2023-04-26T06:12:15;9.10;40.70
21255;DHT22;10785;50.674;17.954;2023-04-26T06:14:46;8.70;40.00
21255;DHT22;10785;50.674;17.954;2023-04-26T06:17:19;8.40;44.50
21255;DHT22;10785;50.674;17.954;2023-04-26T06:42:03;7.90;55.70
21255;DHT22;10785;50.674;17.954;2023-04-26T06:44:53;8.40;44.90
21255;DHT22;10785;50.674;17.954;2023-04-26T06:47:22;8.50;41.40
21255;DHT22;10785;50.674;17.954;2023-04-26T06:49:50;8.40;38.50
21255;DHT22;10785;50.674;17.954;2023-04-26T06:52:19;8.60;39.20
21255;DHT22;10785;50.674;17.954;2023-04-26T06:54:48;9.10;36.80
21255;DHT22;10785;50.674;17.954;2023-04-26T06:57:25;9.20;35.30
21255;DHT22;10785;50.674;17.954;2023-04-26T06:59:53;8.70;35.90
21255;DHT22;10785;50.674;17.954;2023-04-26T07:02:23;8.70;36.90
21255;DHT22;10785;50.674;17.954;2023-04-26T07:04:52;8.40;40.20
21255;DHT22;10785;50.674;17.954;2023-04-26T07:07:21;8.30;36.90
21255;DHT22;10785;50.674;17.954;2023-04-26T07:09:49;8.30;38.20
21255;DHT22;10785;50.674;17.954;2023-04-26T07:12:18;8.30;36.30
21255;DHT22;10785;50.674;17.954;2023-04-26T07:14:48;8.20;37.60
21255;DHT22;10785;50.674;17.954;2023-04-26T07:17:17;8.20;40.90
21255;DHT22;10785;50.674;17.954;2023-04-26T07:19:45;8.50;40.00
21255;DHT22;10785;50.674;17.954;2023-04-26T07:22:14;8.60;38.20
21255;DHT22;10785;50.674;17.954;2023-04-26T07:24:43;8.70;34.50
21255;DHT22;10785;50.674;17.954;2023-04-26T07:27:11;8.30;36.40
21255;DHT22;10785;50.674;17.954;2023-04-26T07:29:40;7.80;43.10
21255;DHT22;10785;50.674;17.954;2023-04-26T07:32:10;7.80;41.30
21255;DHT22;10785;50.674;17.954;2023-04-26T07:34:39;7.50;41.90
21255;DHT22;10785;50.674;17.954;2023-04-26T07:37:08;7.60;41.90
21255;DHT22;10785;50.674;17.954;2023-04-26T07:39:36;7.80;35.20
21255;DHT22;10785;50.674;17.954;2023-04-26T07:42:05;7.40;37.60
21255;DHT22;10785;50.674;17.954;2023-04-26T07:44:33;7.50;38.10
21255;DHT22;10785;50.674;17.954;2023-04-26T07:47:02;7.80;36.80
21255;DHT22;10785;50.674;17.954;2023-04-26T07:49:32;7.90;29.10
21255;DHT22;10785;50.674;17.954;2023-04-26T07:52:01;8.00;32.50
21255;DHT22;10785;50.674;17.954;2023-04-26T08:00:58;7.90;25.20
21255;DHT22;10785;50.674;17.954;2023-04-26T08:03:27;7.90;26.20
21255;DHT22;10785;50.674;17.954;2023-04-26T08:05:58;8.10;25.00
21255;DHT22;10785;50.674;17.954;2023-04-26T08:08:52;8.10;24.70
21255;DHT22;10785;50.674;17.954;2023-04-26T08:11:20;7.90;23.00
21255;DHT22;10785;50.674;17.954;2023-04-26T08:13:49;8.10;23.20
21255;DHT22;10785;50.674;17.954;2023-04-26T08:16:18;8.20;23.00
21255;DHT22;10785;50.674;17.954;2023-04-26T08:18:47;8.50;22.70
21255;DHT22;10785;50.674;17.954;2023-04-26T08:21:17;8.40;21.50
21255;DHT22;10785;50.674;17.954;2023-04-26T08:23:45;8.30;21.90
21255;DHT22;10785;50.674;17.954;2023-04-26T08:26:14;8.30;15.50
21255;DHT22;10785;50.674;17.954;2023-04-26T08:28:42;8.20;16.20
21255;DHT22;10785;50.674;17.954;2023-04-26T08:31:11;8.40;18.40
21255;DHT22;10785;50.674;17.954;2023-04-26T08:33:42;8.30;16.40
21255;DHT22;10785;50.674;17.954;2023-04-26T08:36:11;8.30;15.10
21255;DHT22;10785;50.674;17.954;2023-04-26T08:38:41;8.20;14.50
21255;DHT22;10785;50.674;17.954;2023-04-26T08:41:12;8.40;15.90
21255;DHT22;10785;50.674;17.954;2023-04-26T08:43:41;8.50;12.90
21255;DHT22;10785;50.674;17.954;2023-04-26T08:46:13;8.70;14.90
21255;DHT22;10785;50.674;17.954;2023-04-26T08:48:45;9.00;10.10
21255;DHT22;10785;50.674;17.954;2023-04-26T08:51:17;9.00;11.40
21255;DHT22;10785;50.674;17.954;2023-04-26T09:03:29;8.30;8.10
21255;DHT22;10785;50.674;17.954;2023-04-26T09:05:58;8.50;10.00
21255;DHT22;10785;50.674;17.954;2023-04-26T09:08:30;8.50;11.50
21255;DHT22;10785;50.674;17.954;2023-04-26T09:11:02;8.30;7.10
21255;DHT22;10785;50.674;17.954;2023-04-26T09:13:30;8.40;4.90
21255;DHT22;10785;50.674;17.954;2023-04-26T09:15:59;8.90;3.50
21255;DHT22;10785;50.674;17.954;2023-04-26T09:18:32;9.20;1.90
21255;DHT22;10785;50.674;17.954;2023-04-26T09:21:03;9.40;1.90
21255;DHT22;10785;50.674;17.954;2023-04-26T09:23:33;9.20;2.00
21255;DHT22;10785;50.674;17.954;2023-04-26T09:26:15;8.70;6.10
21255;DHT22;10785;50.674;17.954;2023-04-26T09:28:44;8.30;7.10
21255;DHT22;10785;50.674;17.954;2023-04-26T09:31:34;8.10;8.30
21255;DHT22;10785;50.674;17.954;2023-04-26T09:34:04;8.30;8.20
21255;DHT22;10785;50.674;17.954;2023-04-26T09:36:45;8.30;6.20
21255;DHT22;10785;50.674;17.954;2023-04-26T09:39:14;8.40;5.40
21255;DHT22;10785;50.674;17.954;2023-04-26T09:41:56;8.60;5.50
21255;DHT22;10785;50.674;17.954;2023-04-26T09:44:25;8.90;3.70
21255;DHT22;10785;50.674;17.954;2023-04-26T09:47:01;9.00;1.00
21255;DHT22;10785;50.674;17.954;2023-04-26T09:49:42;9.00;1.00
21255;DHT22;10785;50.674;17.954;2023-04-26T09:52:10;8.90;1.00
21255;DHT22;10785;50.674;17.954;2023-04-26T09:54:42;8.90;1.00
21255;DHT22;10785;50.674;17.954;2023-04-26T09:57:11;8.90;1.90
21255;DHT22;10785;50.674;17.954;2023-04-26T09:59:41;9.30;1.60
21255;DHT22;10785;50.674;17.954;2023-04-26T10:02:15;9.80;1.00
21255;DHT22;10785;50.674;17.954;2023-04-26T10:04:47;10.00;1.00
21255;DHT22;10785;50.674;17.954;2023-04-26T10:07:17;10.10;1.00
21255;DHT22;10785;50.674;17.954;2023-04-26T10:09:47;10.30;1.00
21255;DHT22;10785;50.674;17.954;2023-04-26T10:12:17;10.30;1.00
21255;DHT22;10785;50.674;17.954;2023-04-26T10:14:47;9.70;1.00
21255;DHT22;10785;50.674;17.954;2023-04-26T10:17:18;9.80;1.00
21255;DHT22;10785;50.674;17.954;2023-04-26T10:19:52;10.20;1.00
21255;DHT22;10785;50.674;17.954;2023-04-26T10:22:24;9.90;1.00
21255;DHT22;10785;50.674;17.954;2023-04-26T10:24:54;9.40;1.00
21255;DHT22;10785;50.674;17.954;2023-04-26T10:27:50;9.20;1.00
21255;DHT22;10785;50.674;17.954;2023-04-26T10:30:21;9.10;2.60
21255;DHT22;10785;50.674;17.954;2023-04-26T10:33:13;9.00;7.00
21255;DHT22;10785;50.674;17.954;2023-04-26T10:36:08;8.80;7.70
21255;DHT22;10785;50.674;17.954;2023-04-26T10:38:39;9.10;6.20
21255;DHT22;10785;50.674;17.954;2023-04-26T10:41:30;9.00;6.40
21255;DHT22;10785;50.674;17.954;2023-04-26T10:46:49;9.00;7.80
21255;DHT22;10785;50.674;17.954;2023-04-26T10:49:18;9.10;5.50
21255;DHT22;10785;50.674;17.954;2023-04-26T10:52:09;9.40;5.40
21255;DHT22;10785;50.674;17.954;2023-04-26T10:54:51;9.60;2.40
21255;DHT22;10785;50.674;17.954;2023-04-26T10:57:20;9.60;3.10
21255;DHT22;10785;50.674;17.954;2023-04-26T11:00:14;10.00;4.40
21255;DHT22;10785;50.674;17.954;2023-04-26T11:02:44;10.10;3.00
21255;DHT22;10785;50.674;17.954;2023-04-26T11:08:27;10.60;1.00
21255;DHT22;10785;50.674;17.954;2023-04-26T11:11:07;9.70;1.00
21255;DHT22;10785;50.674;17.954;2023-04-26T11:13:40;9.70;1.00
21255;DHT22;10785;50.674;17.954;2023-04-26T11:16:10;9.70;1.60
21255;DHT22;10785;50.674;17.954;2023-04-26T11:18:41;9.30;6.00
21255;DHT22;10785;50.674;17.954;2023-04-26T11:21:10;9.40;7.70
21255;DHT22;10785;50.674;17.954;2023-04-26T11:23:42;9.60;7.60
21255;DHT22;10785;50.674;17.954;2023-04-26T11:26:20;9.90;7.80
21255;DHT22;10785;50.674;17.954;2023-04-26T11:28:48;10.00;4.40
21255;DHT22;10785;50.674;17.954;2023-04-26T11:31:17;10.10;1.00
21255;DHT22;10785;50.674;17.954;2023-04-26T11:33:46;10.40;1.00
21255;DHT22;10785;50.674;17.954;2023-04-26T11:36:17;10.50;1.00
21255;DHT22;10785;50.674;17.954;2023-04-26T11:58:16;9.20;5.10
21255;DHT22;10785;50.674;17.954;2023-04-26T12:01:00;9.40;5.40
21255;DHT22;10785;50.674;17.954;2023-04-26T12:03:30;9.80;3.50
21255;DHT22;10785;50.674;17.954;2023-04-26T12:06:00;9.80;1.50
21255;DHT22;10785;50.674;17.954;2023-04-26T12:08:28;9.60;4.20
21255;DHT22;10785;50.674;17.954;2023-04-26T12:11:01;10.20;6.10
21255;DHT22;10785;50.674;17.954;2023-04-26T12:13:31;10.80;6.40
21255;DHT22;10785;50.674;17.954;2023-04-26T12:16:06;11.10;2.00
21255;DHT22;10785;50.674;17.954;2023-04-26T12:18:51;11.00;1.00
21255;DHT22;10785;50.674;17.954;2023-04-26T12:21:21;10.50;1.00
21255;DHT22;10785;50.674;17.954;2023-04-26T12:23:50;10.60;1.00
21255;DHT22;10785;50.674;17.954;2023-04-26T12:26:19;10.20;1.00
21255;DHT22;10785;50.674;17.954;2023-04-26T12:28:49;10.20;1.00
21255;DHT22;10785;50.674;17.954;2023-04-26T12:31:18;10.30;1.00
21255;DHT22;10785;50.674;17.954;2023-04-26T12:33:46;10.20;1.00
21255;DHT22;10785;50.674;17.954;2023-04-26T12:36:15;10.20;1.00
21255;DHT22;10785;50.674;17.954;2023-04-26T12:38:43;10.30;1.00
21255;DHT22;10785;50.674;17.954;2023-04-26T12:41:12;10.40;1.00
21255;DHT22;10785;50.674;17.954;2023-04-26T12:43:41;10.10;1.00
21255;DHT22;10785;50.674;17.954;2023-04-26T12:46:10;9.80;1.00
21255;DHT22;10785;50.674;17.954;2023-04-26T12:48:39;9.50;1.00
21255;DHT22;10785;50.674;17.954;2023-04-26T12:51:08;9.60;1.00
21255;DHT22;10785;50.674;17.954;2023-04-26T12:53:36;9.90;1.00
21255;DHT22;10785;50.674;17.954;2023-04-26T12:56:05;10.20;1.00
21255;DHT22;10785;50.674;17.954;2023-04-26T12:58:34;10.10;1.00
21255;DHT22;10785;50.674;17.954;2023-04-26T13:01:02;9.90;1.00
21255;DHT22;10785;50.674;17.954;2023-04-26T13:03:32;9.70;1.00
21255;DHT22;10785;50.674;17.954;2023-04-26T13:06:01;9.80;1.00
21255;DHT22;10785;50.674;17.954;2023-04-26T13:08:30;9.90;1.00
21255;DHT22;10785;50.674;17.954;2023-04-26T13:10:58;10.00;1.00
21255;DHT22;10785;50.674;17.954;2023-04-26T13:13:27;9.90;1.00
21255;DHT22;10785;50.674;17.954;2023-04-26T13:16:09;9.80;1.00
21255;DHT22;10785;50.674;17.954;2023-04-26T13:18:40;9.70;1.30
21255;DHT22;10785;50.674;17.954;2023-04-26T13:21:09;9.30;5.80
21255;DHT22;10785;50.674;17.954;2023-04-26T13:23:37;8.80;7.90
21255;DHT22;10785;50.674;17.954;2023-04-26T13:26:06;8.70;8.00
21255;DHT22;10785;50.674;17.954;2023-04-26T13:28:35;8.60;2.50
21255;DHT22;10785;50.674;17.954;2023-04-26T13:31:04;8.80;1.00
21255;DHT22;10785;50.674;17.954;2023-04-26T13:33:32;8.90;3.00
21255;DHT22;10785;50.674;17.954;2023-04-26T13:38:48;9.40;1.10
21255;DHT22;10785;50.674;17.954;2023-04-26T13:41:18;9.40;1.00
21255;DHT22;10785;50.674;17.954;2023-04-26T13:43:46;9.30;1.00
21255;DHT22;10785;50.674;17.954;2023-04-26T13:46:15;9.50;1.00
21255;DHT22;10785;50.674;17.954;2023-04-26T13:48:44;9.50;1.00
21255;DHT22;10785;50.674;17.954;2023-04-26T13:51:21;9.60;1.00
21255;DHT22;10785;50.674;17.954;2023-04-26T13:53:53;9.70;1.00
21255;DHT22;10785;50.674;17.954;2023-04-26T13:56:21;9.80;1.00
21255;DHT22;10785;50.674;17.954;2023-04-26T13:58:54;9.90;1.00
21255;DHT22;10785;50.674;17.954;2023-04-26T14:01:23;9.80;1.00
21255;DHT22;10785;50.674;17.954;2023-04-26T14:03:52;9.80;1.00
21255;DHT22;10785;50.674;17.954;2023-04-26T14:06:22;10.00;1.00
21255;DHT22;10785;50.674;17.954;2023-04-26T14:08:52;10.10;1.00
21255;DHT22;10785;50.674;17.954;2023-04-26T14:11:21;10.10;1.00
21255;DHT22;10785;50.674;17.954;2023-04-26T14:13:50;9.80;1.00
21255;DHT22;10785;50.674;17.954;2023-04-26T14:16:22;9.50;1.00
21255;DHT22;10785;50.674;17.954;2023-04-26T14:18:51;9.40;1.00
21255;DHT22;10785;50.674;17.954;2023-04-26T14:21:20;9.20;1.00
21255;DHT22;10785;50.674;17.954;2023-04-26T14:23:49;9.10;1.00
21255;DHT22;10785;50.674;17.954;2023-04-26T14:26:19;9.40;1.00
21255;DHT22;10785;50.674;17.954;2023-04-26T14:28:49;9.50;1.00
21255;DHT22;10785;50.674;17.954;2023-04-26T14:31:18;9.80;1.00
21255;DHT22;10785;50.674;17.954;2023-04-26T14:33:47;10.10;1.00
21255;DHT22;10785;50.674;17.954;2023-04-26T14:36:16;10.20;1.00
21255;DHT22;10785;50.674;17.954;2023-04-26T14:38:45;10.30;1.00
21255;DHT22;10785;50.674;17.954;2023-04-26T14:41:14;10.50;1.00
21255;DHT22;10785;50.674;17.954;2023-04-26T14:43:45;10.70;1.00
21255;DHT22;10785;50.674;17.954;2023-04-26T14:46:14;10.80;1.00
21255;DHT22;10785;50.674;17.954;2023-04-26T14:48:43;10.80;1.00
21255;DHT22;10785;50.674;17.954;2023-04-26T14:51:11;10.60;1.00
21255;DHT22;10785;50.674;17.954;2023-04-26T14:53:40;10.50;1.00
21255;DHT22;10785;50.674;17.954;2023-04-26T14:56:08;10.50;1.00
21255;DHT22;10785;50.674;17.954;2023-04-26T14:58:37;10.40;1.00
21255;DHT22;10785;50.674;17.954;2023-04-26T15:01:07;10.50;1.00
21255;DHT22;10785;50.674;17.954;2023-04-26T15:03:37;10.30;1.00
21255;DHT22;10785;50.674;17.954;2023-04-26T15:06:07;9.50;1.00
21255;DHT22;10785;50.674;17.954;2023-04-26T15:08:36;9.20;2.00
21255;DHT22;10785;50.674;17.954;2023-04-26T15:11:04;9.00;4.50
21255;DHT22;10785;50.674;17.954;2023-04-26T15:13:33;9.00;2.90
21255;DHT22;10785;50.674;17.954;2023-04-26T15:16:02;9.10;3.70
21255;DHT22;10785;50.674;17.954;2023-04-26T15:18:35;9.10;1.00
21255;DHT22;10785;50.674;17.954;2023-04-26T15:21:04;9.10;1.00
21255;DHT22;10785;50.674;17.954;2023-04-26T15:23:32;9.10;1.00
21255;DHT22;10785;50.674;17.954;2023-04-26T15:26:01;9.20;1.00
21255;DHT22;10785;50.674;17.954;2023-04-26T15:28:30;9.30;1.00
21255;DHT22;10785;50.674;17.954;2023-04-26T15:31:03;9.40;1.00
21255;DHT22;10785;50.674;17.954;2023-04-26T15:33:32;9.40;1.00
21255;DHT22;10785;50.674;17.954;2023-04-26T15:36:02;9.50;1.00
21255;DHT22;10785;50.674;17.954;2023-04-26T15:38:33;9.80;1.00
21255;DHT22;10785;50.674;17.954;2023-04-26T15:41:02;9.90;1.00
21255;DHT22;10785;50.674;17.954;2023-04-26T15:43:30;9.80;1.00
21255;DHT22;10785;50.674;17.954;2023-04-26T15:45:59;10.00;1.00
21255;DHT22;10785;50.674;17.954;2023-04-26T15:48:28;10.20;1.00
21255;DHT22;10785;50.674;17.954;2023-04-26T15:50:57;10.10;1.00
21255;DHT22;10785;50.674;17.954;2023-04-26T15:53:27;10.00;1.00
21255;DHT22;10785;50.674;17.954;2023-04-26T15:55:55;10.10;1.00
21255;DHT22;10785;50.674;17.954;2023-04-26T15:58:24;10.20;1.00
21255;DHT22;10785;50.674;17.954;2023-04-26T16:00:52;10.10;1.00
21255;DHT22;10785;50.674;17.954;2023-04-26T16:03:21;10.00;1.00
21255;DHT22;10785;50.674;17.954;2023-04-26T16:05:50;9.80;1.00
21255;DHT22;10785;50.674;17.954;2023-04-26T16:08:19;9.60;1.00
21255;DHT22;10785;50.674;17.954;2023-04-26T16:11:08;9.30;2.00
21255;DHT22;10785;50.674;17.954;2023-04-26T16:13:43;9.10;3.80
21255;DHT22;10785;50.674;17.954;2023-04-26T16:16:12;9.00;5.00
21255;DHT22;10785;50.674;17.954;2023-04-26T16:18:46;8.80;5.30
21255;DHT22;10785;50.674;17.954;2023-04-26T16:21:15;8.60;5.70
21255;DHT22;10785;50.674;17.954;2023-04-26T16:23:44;8.70;6.40
21255;DHT22;10785;50.674;17.954;2023-04-26T16:26:14;8.90;6.60
21255;DHT22;10785;50.674;17.954;2023-04-26T16:28:49;9.00;6.00
21255;DHT22;10785;50.674;17.954;2023-04-26T16:31:18;9.10;5.50
21255;DHT22;10785;50.674;17.954;2023-04-26T16:33:46;9.30;4.60
21255;DHT22;10785;50.674;17.954;2023-04-26T16:36:15;9.20;4.10
21255;DHT22;10785;50.674;17.954;2023-04-26T16:38:43;9.20;4.20
21255;DHT22;10785;50.674;17.954;2023-04-26T16:41:13;9.20;3.90
21255;DHT22;10785;50.674;17.954;2023-04-26T16:43:43;9.10;3.60
21255;DHT22;10785;50.674;17.954;2023-04-26T16:46:12;9.10;4.40
21255;DHT22;10785;50.674;17.954;2023-04-26T16:48:40;9.00;5.00
21255;DHT22;10785;50.674;17.954;2023-04-26T16:51:09;9.10;5.90
21255;DHT22;10785;50.674;17.954;2023-04-26T16:53:38;9.10;6.00
21255;DHT22;10785;50.674;17.954;2023-04-26T16:56:07;9.10;4.80
21255;DHT22;10785;50.674;17.954;2023-04-26T16:58:37;9.10;4.70
21255;DHT22;10785;50.674;17.954;2023-04-26T17:01:05;9.10;5.10
21255;DHT22;10785;50.674;17.954;2023-04-26T17:03:34;9.10;2.70
21255;DHT22;10785;50.674;17.954;2023-04-26T17:06:03;9.10;3.30
21255;DHT22;10785;50.674;17.954;2023-04-26T17:08:34;9.30;3.50
21255;DHT22;10785;50.674;17.954;2023-04-26T17:11:03;9.20;3.40
21255;DHT22;10785;50.674;17.954;2023-04-26T17:13:31;9.20;3.40
21255;DHT22;10785;50.674;17.954;2023-04-26T17:16:01;9.10;1.80
21255;DHT22;10785;50.674;17.954;2023-04-26T17:18:32;8.90;2.20
21255;DHT22;10785;50.674;17.954;2023-04-26T17:21:00;8.70;3.40
21255;DHT22;10785;50.674;17.954;2023-04-26T17:23:29;8.70;4.50
21255;DHT22;10785;50.674;17.954;2023-04-26T17:26:00;8.50;6.00
21255;DHT22;10785;50.674;17.954;2023-04-26T17:28:29;8.40;6.80